createdAt,value
2022-10-05T00:02:24.177Z,101232.66
2022-10-05T00:04:56.000Z,101241.13
2022-10-05T00:07:26.949Z,101237.78
2022-10-05T00:10:00.546Z,101239.50
2022-10-05T00:12:30.971Z,101239.56
2022-10-05T00:15:02.986Z,101246.53
2022-10-05T00:17:33.093Z,101244.97
2022-10-05T00:20:02.838Z,101243.31
2022-10-05T00:22:35.464Z,101237.22
2022-10-05T00:25:14.938Z,101232.22
2022-10-05T00:27:44.616Z,101238.16
2022-10-05T00:30:17.235Z,101226.94
2022-10-05T00:32:47.133Z,101229.56
2022-10-05T00:35:17.905Z,101232.97
2022-10-05T00:37:48.084Z,101232.22
2022-10-05T00:40:31.545Z,101231.47
2022-10-05T00:43:13.019Z,101230.56
2022-10-05T00:45:45.194Z,101227.19
2022-10-05T00:48:22.201Z,101233.31
2022-10-05T00:50:57.989Z,101237.75
2022-10-05T00:53:35.844Z,101229.22
2022-10-05T00:56:11.233Z,101218.81
2022-10-05T00:58:50.778Z,101218.81
2022-10-05T01:01:25.493Z,101206.88
2022-10-05T01:04:03.592Z,101205.19
2022-10-05T01:06:38.478Z,101200.81
2022-10-05T01:09:12.524Z,101180.13
2022-10-05T01:11:47.867Z,101183.53
2022-10-05T01:14:21.375Z,101188.69
2022-10-05T01:16:54.406Z,101194.63
2022-10-05T01:19:40.480Z,101192.03
2022-10-05T01:22:14.699Z,101195.53
2022-10-05T01:24:49.859Z,101195.53
2022-10-05T01:27:48.098Z,101184.28
2022-10-05T01:30:19.688Z,101186.81
2022-10-05T01:32:53.806Z,101181.66
2022-10-05T01:35:40.643Z,101180.75
2022-10-05T01:38:21.021Z,101167.75
2022-10-05T01:40:58.006Z,101159.16
2022-10-05T01:43:32.983Z,101150.47
2022-10-05T01:46:06.113Z,101159.06
2022-10-05T01:48:44.361Z,101162.47
2022-10-05T01:51:19.908Z,101160.75
2022-10-05T01:53:59.381Z,101157.16
2022-10-05T01:56:34.671Z,101158.03
2022-10-05T01:59:16.426Z,101154.44
2022-10-05T02:01:51.692Z,101157.16
2022-10-05T02:04:56.413Z,101159.72
2022-10-05T02:07:16.530Z,101162.31
2022-10-05T02:09:49.502Z,101151.13
2022-10-05T02:12:24.454Z,101151.13
2022-10-05T02:14:59.721Z,101148.44
2022-10-05T02:17:33.965Z,101148.53
2022-10-05T02:20:06.714Z,101146.69
2022-10-05T02:22:39.947Z,101144.94
2022-10-05T02:25:11.707Z,101146.50
2022-10-05T02:27:47.534Z,101146.50
2022-10-05T02:30:20.236Z,101144.75
2022-10-05T02:32:54.436Z,101140.34
2022-10-05T02:35:24.633Z,101143.00
2022-10-05T02:38:02.890Z,101143.66
2022-10-05T02:40:40.949Z,101134.06
2022-10-05T02:43:21.043Z,101131.56
2022-10-05T02:45:56.258Z,101120.28
2022-10-05T02:48:34.222Z,101120.28
2022-10-05T02:51:08.261Z,101111.69
2022-10-05T02:53:41.757Z,101109.13
2022-10-05T02:56:18.262Z,101114.34
2022-10-05T02:58:52.364Z,101095.19
2022-10-05T03:01:28.629Z,101092.66
2022-10-05T03:04:07.886Z,101083.91
2022-10-05T03:06:44.003Z,101083.00
2022-10-05T03:09:13.719Z,101082.94
2022-10-05T03:11:48.218Z,101078.66
2022-10-05T03:14:22.030Z,101089.00
2022-10-05T03:17:03.688Z,101078.72
2022-10-05T03:19:56.421Z,101085.59
2022-10-05T03:22:37.431Z,101078.66
2022-10-05T03:25:29.501Z,101072.66
2022-10-05T03:28:02.196Z,101066.66
2022-10-05T03:30:35.974Z,101066.66
2022-10-05T03:33:12.990Z,101062.31
2022-10-05T03:35:49.311Z,101055.50
2022-10-05T03:38:21.987Z,101058.09
2022-10-05T03:40:58.481Z,101057.28
2022-10-05T03:43:43.400Z,101044.38
2022-10-05T03:46:17.023Z,101040.94
2022-10-05T03:48:54.242Z,101044.38
2022-10-05T03:51:27.619Z,101038.47
2022-10-05T03:54:00.210Z,101032.38
2022-10-05T03:56:34.957Z,101038.41
2022-10-05T03:59:11.238Z,101027.19
2022-10-05T04:01:44.544Z,101033.22
2022-10-05T04:04:21.757Z,101022.03
2022-10-05T04:06:52.123Z,101016.84
2022-10-05T04:09:26.534Z,101015.97
2022-10-05T04:12:05.596Z,101022.03
2022-10-05T04:14:38.405Z,101018.63
2022-10-05T04:17:12.469Z,101014.34
2022-10-05T04:19:47.315Z,101029.03
2022-10-05T04:22:20.121Z,101027.31
2022-10-05T04:24:52.677Z,101029.97
2022-10-05T04:27:24.331Z,101029.22
2022-10-05T04:29:56.914Z,101020.63
2022-10-05T04:32:33.000Z,101018.03
2022-10-05T04:35:29.067Z,101013.75
2022-10-05T04:38:04.497Z,101013.81
2022-10-05T04:40:42.737Z,101009.63
2022-10-05T04:43:16.815Z,101002.72
2022-10-05T04:45:55.662Z,101007.75
2022-10-05T04:48:38.127Z,101003.47
2022-10-05T04:51:22.494Z,101005.19
2022-10-05T04:53:57.266Z,101008.59
2022-10-05T04:56:32.590Z,100998.19
2022-10-05T04:59:26.176Z,100993.06
2022-10-05T05:02:09.338Z,100995.66
2022-10-05T05:04:54.619Z,100998.25
2022-10-05T05:07:34.010Z,101004.28
2022-10-05T05:10:25.972Z,100998.28
2022-10-05T05:13:02.833Z,100985.31
2022-10-05T05:15:43.127Z,100993.06
2022-10-05T05:18:38.525Z,100986.41
2022-10-05T05:21:12.086Z,100982.75
2022-10-05T05:23:48.183Z,100981.06
2022-10-05T05:26:22.410Z,100975.84
2022-10-05T05:28:57.466Z,100976.66
2022-10-05T05:31:31.714Z,100969.81
2022-10-05T05:34:07.930Z,100968.03
2022-10-05T05:36:53.994Z,100958.63
2022-10-05T05:39:31.169Z,100959.47
2022-10-05T05:42:06.743Z,100951.75
2022-10-05T05:44:39.557Z,100957.72
2022-10-05T05:47:21.988Z,100949.13
2022-10-05T05:50:08.037Z,100944.78
2022-10-05T05:52:41.376Z,100944.81
2022-10-05T05:55:19.383Z,100943.22
2022-10-05T05:57:53.666Z,100950.03
2022-10-05T06:00:24.909Z,100943.03
2022-10-05T06:02:59.600Z,100931.22
2022-10-05T06:05:33.541Z,100925.88
2022-10-05T06:08:07.665Z,100912.09
2022-10-05T06:10:44.505Z,100921.53
2022-10-05T06:13:18.982Z,100923.28
2022-10-05T06:15:52.033Z,100913.13
2022-10-05T06:18:23.178Z,100912.28
2022-10-05T06:20:57.669Z,100915.81
2022-10-05T06:23:31.985Z,100916.63
2022-10-05T06:26:14.185Z,100907.41
2022-10-05T06:28:43.901Z,100915.25
2022-10-05T06:31:25.499Z,100909.25
2022-10-05T06:33:56.954Z,100900.50
2022-10-05T06:36:37.813Z,100898.06
2022-10-05T06:39:40.857Z,100912.75
2022-10-05T06:42:22.990Z,100914.50
2022-10-05T06:44:56.799Z,100924.84
2022-10-05T06:47:32.509Z,100916.25
2022-10-05T06:50:12.564Z,100918.84
2022-10-05T06:52:47.483Z,100911.16
2022-10-05T06:55:22.370Z,100907.72
2022-10-05T06:58:20.302Z,100903.41
2022-10-05T07:00:53.878Z,100907.81
2022-10-05T07:03:30.997Z,100913.03
2022-10-05T07:06:12.725Z,100908.75
2022-10-05T07:09:01.851Z,100898.38
2022-10-05T07:11:42.605Z,100907.88
2022-10-05T07:14:22.595Z,100905.38
2022-10-05T07:17:03.457Z,100897.69
2022-10-05T07:19:39.633Z,100892.50
2022-10-05T07:22:34.484Z,100897.81
2022-10-05T07:25:08.776Z,100892.75
2022-10-05T07:27:40.754Z,100894.50
2022-10-05T07:30:14.361Z,100899.78
2022-10-05T07:32:48.329Z,100898.06
2022-10-05T07:35:37.782Z,100893.09
2022-10-05T07:38:10.865Z,100903.53
2022-10-05T07:40:43.025Z,100912.13
2022-10-05T07:43:31.984Z,100898.50
2022-10-05T07:46:14.362Z,100910.53
2022-10-05T07:48:55.091Z,100907.06
2022-10-05T07:51:31.328Z,100905.44
2022-10-05T07:54:09.658Z,100910.59
2022-10-05T07:56:42.075Z,100919.22
2022-10-05T07:59:18.653Z,100916.63
2022-10-05T08:01:54.789Z,100917.53
2022-10-05T08:04:27.821Z,100915.09
2022-10-05T08:07:00.020Z,100916.84
2022-10-05T08:09:38.323Z,100918.81
2022-10-05T08:12:17.613Z,100929.38
2022-10-05T08:14:51.238Z,100934.72
2022-10-05T08:17:30.345Z,100934.78
2022-10-05T08:20:12.693Z,100929.63
2022-10-05T08:22:47.046Z,100927.22
2022-10-05T08:25:22.482Z,100942.91
2022-10-05T08:27:55.366Z,100950.63
2022-10-05T08:30:24.901Z,100952.38
2022-10-05T08:33:03.404Z,100947.38
2022-10-05T08:35:35.721Z,100943.97
2022-10-05T08:38:07.423Z,100944.94
2022-10-05T08:41:07.135Z,100953.50
2022-10-05T08:44:06.800Z,100952.09
2022-10-05T08:46:56.529Z,100957.38
2022-10-05T08:49:48.241Z,100960.03
2022-10-05T08:52:32.626Z,100963.50
2022-10-05T08:55:21.801Z,100972.34
2022-10-05T08:58:15.930Z,100960.44
2022-10-05T09:00:51.619Z,100975.94
2022-10-05T09:03:37.075Z,100961.44
2022-10-05T09:06:26.954Z,100969.09
2022-10-05T09:09:06.618Z,100963.94
2022-10-05T09:11:39.064Z,100966.59
2022-10-05T09:14:24.676Z,100968.56
2022-10-05T09:17:06.448Z,100970.66
2022-10-05T09:19:54.719Z,100974.41
2022-10-05T09:22:38.761Z,100977.25
2022-10-05T09:25:24.133Z,100977.50
2022-10-05T09:27:58.065Z,100976.69
2022-10-05T09:30:32.999Z,100983.94
2022-10-05T09:33:30.434Z,100987.44
2022-10-05T09:36:18.063Z,100988.69
2022-10-05T09:39:16.371Z,100991.47
2022-10-05T09:42:18.688Z,100995.16
2022-10-05T09:45:31.276Z,100998.69
2022-10-05T09:48:14.952Z,100999.84
2022-10-05T09:51:01.594Z,101012.69
2022-10-05T09:53:56.438Z,101015.41
2022-10-05T09:56:46.406Z,101017.88
2022-10-05T09:59:32.193Z,101019.75
2022-10-05T10:02:16.989Z,101025.78
2022-10-05T10:05:05.769Z,101022.81
2022-10-05T10:08:00.013Z,101025.53
2022-10-05T10:10:49.658Z,101024.75
2022-10-05T10:13:31.162Z,101017.78
2022-10-05T10:16:10.822Z,101021.94
2022-10-05T10:19:02.501Z,101024.63
2022-10-05T10:21:55.195Z,101017.50
2022-10-05T10:24:45.858Z,101020.91
2022-10-05T10:27:30.147Z,101019.94
2022-10-05T10:30:18.923Z,101012.59
2022-10-05T10:33:11.937Z,101015.84
2022-10-05T10:35:42.903Z,101006.56
2022-10-05T10:38:41.063Z,101007.56
2022-10-05T10:41:23.749Z,101013.59
2022-10-05T10:44:25.723Z,101016.13
2022-10-05T10:47:13.796Z,101023.94
2022-10-05T10:49:54.067Z,101017.94
2022-10-05T10:52:35.314Z,101013.47
2022-10-05T10:55:37.812Z,101014.25
2022-10-05T10:58:35.832Z,101014.31
2022-10-05T11:01:15.049Z,101018.63
2022-10-05T11:04:07.210Z,101016.03
2022-10-05T11:06:45.753Z,101016.03
2022-10-05T11:09:25.646Z,101011.63
2022-10-05T11:12:34.289Z,101010.84
2022-10-05T11:15:20.433Z,101003.00
2022-10-05T11:18:01.028Z,100997.91
2022-10-05T11:21:02.725Z,100995.16
2022-10-05T11:23:51.438Z,100993.50
2022-10-05T11:26:43.087Z,101002.03
2022-10-05T11:29:29.297Z,100988.31
2022-10-05T11:32:22.865Z,100993.41
2022-10-05T11:35:18.433Z,100997.81
2022-10-05T11:38:03.979Z,100984.94
2022-10-05T11:40:54.827Z,100990.91
2022-10-05T11:43:49.695Z,100989.94
2022-10-05T11:46:22.498Z,100989.13
2022-10-05T11:49:33.153Z,100989.06
2022-10-05T11:52:09.347Z,100979.59
2022-10-05T11:55:16.653Z,100966.78
2022-10-05T11:57:51.423Z,100966.78
2022-10-05T12:00:22.610Z,100957.25
2022-10-05T12:03:03.030Z,100965.03
2022-10-05T12:05:36.598Z,100958.38
2022-10-05T12:08:17.633Z,100961.91
2022-10-05T12:10:58.705Z,100953.38
2022-10-05T12:13:34.102Z,100944.78
2022-10-05T12:16:08.159Z,100945.63
2022-10-05T12:18:55.107Z,100953.53
2022-10-05T12:21:30.294Z,100943.16
2022-10-05T12:24:02.086Z,100945.94
2022-10-05T12:26:39.767Z,100943.47
2022-10-05T12:29:14.672Z,100940.03
2022-10-05T12:31:51.542Z,100950.59
2022-10-05T12:34:29.162Z,100944.66
2022-10-05T12:37:05.241Z,100945.59
2022-10-05T12:39:41.866Z,100953.56
2022-10-05T12:42:24.127Z,100947.63
2022-10-05T12:45:10.891Z,100952.09
2022-10-05T12:47:53.804Z,100952.91
2022-10-05T12:50:27.118Z,100949.63
2022-10-05T12:53:11.503Z,100951.41
2022-10-05T12:55:45.528Z,100953.91
2022-10-05T12:58:27.714Z,100957.53
2022-10-05T13:01:01.399Z,100954.94
2022-10-05T13:03:33.795Z,100952.59
2022-10-05T13:06:11.630Z,100958.78
2022-10-05T13:08:47.627Z,100951.91
2022-10-05T13:11:20.431Z,100952.00
2022-10-05T13:13:57.785Z,100956.66
2022-10-05T13:16:33.387Z,100955.91
2022-10-05T13:19:17.233Z,100957.59
2022-10-05T13:22:19.749Z,100948.03
2022-10-05T13:24:59.439Z,100957.66
2022-10-05T13:27:31.058Z,100953.41
2022-10-05T13:30:08.407Z,100947.34
2022-10-05T13:32:39.323Z,100946.47
2022-10-05T13:35:25.150Z,100939.63
2022-10-05T13:38:02.542Z,100942.31
2022-10-05T13:40:36.500Z,100950.16
2022-10-05T13:43:09.409Z,100948.47
2022-10-05T13:45:45.782Z,100949.44
2022-10-05T13:48:24.270Z,100945.09
2022-10-05T13:51:05.309Z,100942.56
2022-10-05T13:53:42.630Z,100937.50
2022-10-05T13:56:21.074Z,100938.41
2022-10-05T13:58:54.666Z,100930.66
2022-10-05T14:01:37.728Z,100932.47
2022-10-05T14:04:19.834Z,100932.47
2022-10-05T14:06:50.107Z,100927.28
2022-10-05T14:09:31.187Z,100926.47
2022-10-05T14:12:16.647Z,100921.38
2022-10-05T14:14:48.503Z,100927.44
2022-10-05T14:17:37.855Z,100922.34
2022-10-05T14:20:21.510Z,100925.78
2022-10-05T14:22:55.641Z,100926.63
2022-10-05T14:25:25.292Z,100924.09
2022-10-05T14:28:02.035Z,100920.63
2022-10-05T14:30:32.734Z,100915.44
2022-10-05T14:33:17.886Z,100912.00
2022-10-05T14:35:49.781Z,100908.66
2022-10-05T14:38:22.183Z,100911.28
2022-10-05T14:41:25.545Z,100913.91
2022-10-05T14:43:56.470Z,100906.09
2022-10-05T14:46:28.998Z,100901.00
2022-10-05T14:49:17.056Z,100894.94
2022-10-05T14:51:46.455Z,100901.91
2022-10-05T14:54:35.423Z,100889.00
2022-10-05T14:57:10.225Z,100885.59
2022-10-05T15:00:00.920Z,100888.19
2022-10-05T15:02:44.971Z,100882.19
2022-10-05T15:05:19.311Z,100884.78
2022-10-05T15:07:51.262Z,100876.19
2022-10-05T15:10:29.663Z,100873.56
2022-10-05T15:13:08.057Z,100875.38
2022-10-05T15:15:45.382Z,100867.63
2022-10-05T15:18:23.134Z,100873.72
2022-10-05T15:21:01.493Z,100871.13
2022-10-05T15:23:38.197Z,100864.28
2022-10-05T15:26:17.942Z,100856.47
2022-10-05T15:28:52.069Z,100845.22
2022-10-05T15:31:27.638Z,100843.50
2022-10-05T15:34:02.866Z,100833.97
2022-10-05T15:36:41.467Z,100832.25
2022-10-05T15:39:17.130Z,100829.69
2022-10-05T15:41:58.908Z,100819.25
2022-10-05T15:44:36.474Z,100817.59
2022-10-05T15:47:08.714Z,100808.94
2022-10-05T15:49:42.311Z,100811.59
2022-10-05T15:52:23.319Z,100810.72
2022-10-05T15:55:11.245Z,100811.66
2022-10-05T15:57:45.480Z,100827.31
2022-10-05T16:00:16.283Z,100830.81
2022-10-05T16:02:52.085Z,100834.31
2022-10-05T16:05:43.361Z,100836.97
2022-10-05T16:08:36.291Z,100844.00
2022-10-05T16:11:06.425Z,100847.41
2022-10-05T16:13:41.835Z,100849.06
2022-10-05T16:16:21.032Z,100851.66
2022-10-05T16:18:59.768Z,100854.31
2022-10-05T16:21:33.037Z,100855.09
2022-10-05T16:24:16.848Z,100845.53
2022-10-05T16:26:56.352Z,100855.78
2022-10-05T16:29:33.939Z,100848.78
2022-10-05T16:32:06.158Z,100845.16
2022-10-05T16:34:47.117Z,100849.34
2022-10-05T16:37:23.597Z,100846.59
2022-10-05T16:40:00.304Z,100850.91
2022-10-05T16:42:46.314Z,100843.19
2022-10-05T16:45:30.012Z,100850.84
2022-10-05T16:48:06.278Z,100852.53
2022-10-05T16:50:43.093Z,100861.25
2022-10-05T16:53:16.823Z,100873.34
2022-10-05T16:55:50.888Z,100864.66
2022-10-05T16:58:25.690Z,100874.25
2022-10-05T17:01:04.752Z,100881.09
2022-10-05T17:03:46.426Z,100880.28
2022-10-05T17:06:29.085Z,100886.25
2022-10-05T17:09:25.429Z,100882.84
2022-10-05T17:12:18.954Z,100895.97
2022-10-05T17:14:58.737Z,100896.84
2022-10-05T17:17:49.039Z,100900.25
2022-10-05T17:20:26.613Z,100906.34
2022-10-05T17:22:59.594Z,100902.84
2022-10-05T17:25:38.899Z,100905.44
2022-10-05T17:28:27.604Z,100906.34
2022-10-05T17:31:14.831Z,100900.09
2022-10-05T17:34:26.291Z,100904.50
2022-10-05T17:36:59.797Z,100908.94
2022-10-05T17:39:48.238Z,100907.19
2022-10-05T17:42:48.074Z,100905.44
2022-10-05T17:45:47.611Z,100900.16
2022-10-05T17:48:42.931Z,100904.53
2022-10-05T17:51:32.923Z,100907.03
2022-10-05T17:54:14.886Z,100903.50
2022-10-05T17:57:14.160Z,100898.25
2022-10-05T17:59:49.262Z,100900.09
2022-10-05T18:02:23.774Z,100889.69
2022-10-05T18:05:27.683Z,100890.50
2022-10-05T18:08:32.527Z,100892.94
2022-10-05T18:11:17.266Z,100879.94
2022-10-05T18:13:50.302Z,100879.91
2022-10-05T18:16:52.179Z,100879.84
2022-10-05T18:19:23.239Z,100881.66
2022-10-05T18:22:07.545Z,100872.16
2022-10-05T18:24:49.023Z,100870.41
2022-10-05T18:28:02.594Z,100867.91
2022-10-05T18:30:34.753Z,100866.16
2022-10-05T18:33:29.882Z,100878.34
2022-10-05T18:36:10.595Z,100868.75
2022-10-05T18:38:54.061Z,100863.69
2022-10-05T18:41:34.630Z,100871.50
2022-10-05T18:44:19.034Z,100884.63
2022-10-05T18:46:54.308Z,100882.94
2022-10-05T18:49:34.646Z,100882.03
2022-10-05T18:52:09.042Z,100888.19
2022-10-05T18:54:54.197Z,100899.59
2022-10-05T18:57:43.465Z,100911.72
2022-10-05T19:00:18.181Z,100914.34
2022-10-05T19:02:51.009Z,100916.00
2022-10-05T19:05:46.907Z,100909.88
2022-10-05T19:08:22.636Z,100919.50
2022-10-05T19:10:57.733Z,100924.53
2022-10-05T19:13:37.800Z,100919.34
2022-10-05T19:16:24.357Z,100920.38
2022-10-05T19:19:06.666Z,100918.59
2022-10-05T19:21:44.965Z,100928.03
2022-10-05T19:24:31.342Z,100924.50
2022-10-05T19:27:09.614Z,100923.66
2022-10-05T19:29:48.016Z,100914.00
2022-10-05T19:32:21.493Z,100915.84
2022-10-05T19:35:09.751Z,100920.94
2022-10-05T19:37:45.886Z,100929.69
2022-10-05T19:40:20.289Z,100936.38
2022-10-05T19:43:19.000Z,100931.94
2022-10-05T19:45:58.680Z,100933.03
2022-10-05T19:48:33.006Z,100934.69
2022-10-05T19:51:03.514Z,100939.78
2022-10-05T19:53:36.448Z,100941.63
2022-10-05T19:56:20.408Z,100940.75
2022-10-05T19:58:53.207Z,100954.69
2022-10-05T20:01:27.595Z,100957.34
2022-10-05T20:03:57.974Z,100956.63
2022-10-05T20:06:29.465Z,100964.38
2022-10-05T20:09:02.751Z,100960.03
2022-10-05T20:11:32.177Z,100960.88
2022-10-05T20:14:22.276Z,100966.03
2022-10-05T20:17:33.585Z,100967.91
2022-10-05T20:20:31.283Z,100964.59
2022-10-05T20:23:22.129Z,100964.59
2022-10-05T20:26:11.573Z,100970.69
2022-10-05T20:28:41.090Z,100968.00
2022-10-05T20:31:14.547Z,100970.59
2022-10-05T20:33:44.110Z,100960.09
2022-10-05T20:36:13.521Z,100965.28
2022-10-05T20:38:42.902Z,100954.03
2022-10-05T20:41:12.297Z,100963.53
2022-10-05T20:43:42.073Z,100969.53
2022-10-05T20:46:14.031Z,100971.97
2022-10-05T20:48:43.417Z,100970.22
2022-10-05T20:51:12.778Z,100979.72
2022-10-05T20:53:42.521Z,100976.22
2022-10-05T20:56:11.915Z,100990.06
2022-10-05T20:58:41.663Z,100991.81
2022-10-05T21:01:20.247Z,100978.88
2022-10-05T21:03:52.637Z,100971.94
2022-10-05T21:06:22.193Z,100972.78
2022-10-05T21:08:51.615Z,100977.97
2022-10-05T21:11:21.063Z,100968.63
2022-10-05T21:13:51.234Z,100967.69
2022-10-05T21:16:21.448Z,100969.28
2022-10-05T21:18:53.715Z,100966.03
2022-10-05T21:21:27.333Z,100982.69
2022-10-05T21:24:00.315Z,100974.94
2022-10-05T21:26:30.202Z,100976.53
2022-10-05T21:29:00.355Z,100972.28
2022-10-05T21:31:30.483Z,100978.41
2022-10-05T21:34:02.508Z,100989.66
2022-10-05T21:36:32.257Z,100980.03
2022-10-05T21:39:01.723Z,100997.44
2022-10-05T21:41:31.143Z,100999.34
2022-10-05T21:44:00.613Z,101005.66
2022-10-05T21:46:30.074Z,101016.06
2022-10-05T21:49:02.098Z,101016.91
2022-10-05T21:51:31.624Z,101019.47
2022-10-05T21:54:05.418Z,101023.72
2022-10-05T21:56:38.498Z,101016.75
2022-10-05T21:59:09.784Z,101014.22
2022-10-05T22:01:39.326Z,101013.31
2022-10-05T22:04:11.425Z,101015.16
2022-10-05T22:06:40.886Z,101030.75
2022-10-05T22:09:10.291Z,101025.44
2022-10-05T22:11:39.721Z,101025.41
2022-10-05T22:14:09.236Z,101022.06
2022-10-05T22:16:40.624Z,101017.69
2022-10-05T22:19:16.425Z,101016.75
2022-10-05T22:21:45.838Z,101037.72
2022-10-05T22:24:15.217Z,101039.41
2022-10-05T22:26:46.833Z,101036.84
2022-10-05T22:29:17.784Z,101045.56
2022-10-05T22:31:48.874Z,101049.88
2022-10-05T22:34:21.087Z,101054.31
2022-10-05T22:36:51.161Z,101063.88
2022-10-05T22:39:20.686Z,101065.72
2022-10-05T22:41:50.444Z,101068.25
2022-10-05T22:44:19.814Z,101091.00
2022-10-05T22:46:49.195Z,101080.69
2022-10-05T22:49:21.234Z,101106.50
2022-10-05T22:51:51.108Z,101108.88
2022-10-05T22:54:20.894Z,101131.03
2022-10-05T22:56:50.309Z,101137.47
2022-10-05T22:59:19.688Z,101116.00
2022-10-05T23:01:49.163Z,101103.56
2022-10-05T23:04:21.186Z,101101.66
2022-10-05T23:06:50.569Z,101125.75
2022-10-05T23:09:19.971Z,101126.41
2022-10-05T23:11:52.146Z,101140.91
2022-10-05T23:14:21.734Z,101141.53
2022-10-05T23:16:51.538Z,101133.53
2022-10-05T23:19:24.691Z,101117.66
2022-10-05T23:21:54.106Z,101127.84
2022-10-05T23:24:23.886Z,101118.28
2022-10-05T23:26:53.289Z,101113.94
2022-10-05T23:29:23.242Z,101101.81
2022-10-05T23:31:52.860Z,101112.97
2022-10-05T23:34:25.698Z,101105.00
2022-10-05T23:36:55.262Z,101099.81
2022-10-05T23:39:24.845Z,101094.53
2022-10-05T23:41:54.305Z,101097.13
2022-10-05T23:44:23.718Z,101107.41
2022-10-05T23:46:53.156Z,101107.38
2022-10-05T23:49:25.113Z,101114.41
2022-10-05T23:51:54.589Z,101138.56
2022-10-05T23:54:24.014Z,101151.53
2022-10-05T23:56:53.409Z,101153.25
2022-10-05T23:59:22.929Z,101175.72
